Ormond — D5KI5 — position and weather

sailwx.info

Track history (hours):
 
Tides and Currents Weather Stations Pressure Air Temp Water Temp Dewpoint Dewpoint Depression Visibility Wind Speed Wind Dir Waves Ship Positions

Ormond

Last reported at 2017-Dec-01 13:02 UTC. Time now 2018-Jan-19 08:02 UTC.
Position N 01°19' E 103°19'.
Warning: this ship's position is 48 days out of date.

Length 292 m; draft 11.3 m.

Type: Cargo ship. MMSI: 636017319.

Date/timePositionNaut miles runAvg speedWind from/ knotsBaromVisibWave heightAir tempDewpointWater temp
2017-Dec-01 13:02N 01°19' E 103°19'112.0
2017-Dec-01 12:56N 01°18' E 103°20'612.4
2017-Dec-01 12:28N 01°15' E 103°25'612.9
2017-Dec-01 11:59N 01°13' E 103°31'613.3
2017-Dec-01 11:30N 01°11' E 103°37'713.8
2017-Dec-01 11:00N 01°09' E 103°43'611.9
2017-Dec-01 10:30N 01°11' E 103°49'713.7
2017-Dec-01 10:00N 01°14' E 103°55'4 7.1
2017-Dec-01 09:30N 01°16' E 103°57'1 1.2
2017-Dec-01 09:00N 01°17' E 103°57'0 0.1
2017-Dec-01 08:24N 01°17' E 103°57'0 0.0
2017-Dec-01 07:51N 01°17' E 103°57'0 0.0
2017-Dec-01 07:21N 01°17' E 103°57'0 0.0
2017-Dec-01 06:54N 01°17' E 103°57'0 0.0
2017-Dec-01 06:30N 01°17' E 103°57'0 0.0
2017-Dec-01 06:00N 01°17' E 103°57'0 0.0
2017-Dec-01 05:30N 01°17' E 103°57'0 0.0
2017-Dec-01 05:00N 01°17' E 103°57'0 0.1
2017-Dec-01 04:30N 01°17' E 103°57'0 0.1
2017-Dec-01 04:00N 01°17' E 103°57'0 0.0
2017-Dec-01 03:30N 01°17' E 103°57'0 0.0
2017-Dec-01 02:48N 01°17' E 103°57'0 0.2
2017-Dec-01 02:21N 01°17' E 103°57'0 0.0
2017-Nov-30 19:54N 01°17' E 103°57'0 0.3
2017-Nov-30 19:30N 01°17' E 103°57'0 0.1
2017-Nov-30 18:54N 01°17' E 103°57'0 0.1
2017-Nov-30 18:30N 01°17' E 103°57'0 0.0
2017-Nov-30 18:00N 01°17' E 103°57'0 0.0
2017-Nov-30 17:30N 01°17' E 103°57'1 2.0
2017-Nov-30 17:00N 01°16' E 103°58'0 1.0
2017-Nov-30 16:30N 01°16' E 103°58'2 3.5
2017-Nov-30 16:00N 01°16' E 104°00'4 7.7
2017-Nov-30 15:30N 01°16' E 104°04'  
2017-Nov-25 09:57N 23°14' E 119°48'613.6
2017-Nov-25 09:29N 23°20' E 119°48'713.9
2017-Nov-25 09:01N 23°27' E 119°49'713.3
2017-Nov-25 08:30N 23°33' E 119°49'612.4
2017-Nov-25 08:00N 23°40' E 119°49'611.9
2017-Nov-25 07:30N 23°46' E 119°50'611.9
2017-Nov-25 06:59N 23°52' E 119°50'45111.0
2017-Nov-23 13:53N 30°58' E 122°35'4 9.8
2017-Nov-23 13:31N 30°59' E 122°31'510.1
2017-Nov-23 12:59N 31°04' E 122°32'4 8.9
2017-Nov-23 12:29N 31°06' E 122°27'612.0
2017-Nov-23 12:00N 31°06' E 122°20'612.2
2017-Nov-23 11:30N 31°09' E 122°14'714.3
2017-Nov-23 11:00N 31°13' E 122°07'714.7
2017-Nov-23 10:30N 31°15' E 121°59'714.9
2017-Nov-23 10:00N 31°17' E 121°50'714.8
2017-Nov-23 09:30N 31°19' E 121°42'611.9
2017-Nov-23 09:01N 31°22' E 121°36'510.4
2017-Nov-23 08:30N 31°25' E 121°31'4 7.0
2017-Nov-23 08:00N 31°27' E 121°28'510.9
2017-Nov-23 07:30N 31°31' E 121°23'611.8
2017-Nov-23 07:00N 31°35' E 121°18'611.9
2017-Nov-23 06:30N 31°39' E 121°13'611.9
2017-Nov-23 06:00N 31°43' E 121°08'713.1
2017-Nov-23 05:30N 31°46' E 121°01'  
Track history (hours):
 
Tides and Currents Weather Stations Pressure Air Temp Water Temp Dewpoint Dewpoint Depression Visibility Wind Speed Wind Dir Waves Ship Positions

Ormond

Last reported at 2017-Dec-01 13:02 UTC. Time now 2018-Jan-19 08:02 UTC.
Position N 01°19' E 103°19'.
Warning: this ship's position is 48 days out of date.

Length 292 m; draft 11.3 m.

Type: Cargo ship. MMSI: 636017319.

Date/timePositionNaut miles runAvg speedWind from/ knotsBaromVisibWave heightAir tempDewpointWater temp
2017-Dec-01 13:02N 01°19' E 103°19'112.0
2017-Dec-01 12:56N 01°18' E 103°20'612.4
2017-Dec-01 12:28N 01°15' E 103°25'612.9
2017-Dec-01 11:59N 01°13' E 103°31'613.3
2017-Dec-01 11:30N 01°11' E 103°37'713.8
2017-Dec-01 11:00N 01°09' E 103°43'611.9
2017-Dec-01 10:30N 01°11' E 103°49'713.7
2017-Dec-01 10:00N 01°14' E 103°55'4 7.1
2017-Dec-01 09:30N 01°16' E 103°57'1 1.2
2017-Dec-01 09:00N 01°17' E 103°57'0 0.1
2017-Dec-01 08:24N 01°17' E 103°57'0 0.0
2017-Dec-01 07:51N 01°17' E 103°57'0 0.0
2017-Dec-01 07:21N 01°17' E 103°57'0 0.0
2017-Dec-01 06:54N 01°17' E 103°57'0 0.0
2017-Dec-01 06:30N 01°17' E 103°57'0 0.0
2017-Dec-01 06:00N 01°17' E 103°57'0 0.0
2017-Dec-01 05:30N 01°17' E 103°57'0 0.0
2017-Dec-01 05:00N 01°17' E 103°57'0 0.1
2017-Dec-01 04:30N 01°17' E 103°57'0 0.1
2017-Dec-01 04:00N 01°17' E 103°57'0 0.0
2017-Dec-01 03:30N 01°17' E 103°57'0 0.0
2017-Dec-01 02:48N 01°17' E 103°57'0 0.2
2017-Dec-01 02:21N 01°17' E 103°57'0 0.0
2017-Nov-30 19:54N 01°17' E 103°57'0 0.3
2017-Nov-30 19:30N 01°17' E 103°57'0 0.1
2017-Nov-30 18:54N 01°17' E 103°57'0 0.1
2017-Nov-30 18:30N 01°17' E 103°57'0 0.0
2017-Nov-30 18:00N 01°17' E 103°57'0 0.0
2017-Nov-30 17:30N 01°17' E 103°57'1 2.0
2017-Nov-30 17:00N 01°16' E 103°58'0 1.0
2017-Nov-30 16:30N 01°16' E 103°58'2 3.5
2017-Nov-30 16:00N 01°16' E 104°00'4 7.7
2017-Nov-30 15:30N 01°16' E 104°04'  
2017-Nov-25 09:57N 23°14' E 119°48'613.6
2017-Nov-25 09:29N 23°20' E 119°48'713.9
2017-Nov-25 09:01N 23°27' E 119°49'713.3
2017-Nov-25 08:30N 23°33' E 119°49'612.4
2017-Nov-25 08:00N 23°40' E 119°49'611.9
2017-Nov-25 07:30N 23°46' E 119°50'611.9
2017-Nov-25 06:59N 23°52' E 119°50'45111.0
2017-Nov-23 13:53N 30°58' E 122°35'4 9.8
2017-Nov-23 13:31N 30°59' E 122°31'510.1
2017-Nov-23 12:59N 31°04' E 122°32'4 8.9
2017-Nov-23 12:29N 31°06' E 122°27'612.0
2017-Nov-23 12:00N 31°06' E 122°20'612.2
2017-Nov-23 11:30N 31°09' E 122°14'714.3
2017-Nov-23 11:00N 31°13' E 122°07'714.7
2017-Nov-23 10:30N 31°15' E 121°59'714.9
2017-Nov-23 10:00N 31°17' E 121°50'714.8
2017-Nov-23 09:30N 31°19' E 121°42'611.9
2017-Nov-23 09:01N 31°22' E 121°36'510.4
2017-Nov-23 08:30N 31°25' E 121°31'4 7.0
2017-Nov-23 08:00N 31°27' E 121°28'510.9
2017-Nov-23 07:30N 31°31' E 121°23'611.8
2017-Nov-23 07:00N 31°35' E 121°18'611.9
2017-Nov-23 06:30N 31°39' E 121°13'611.9
2017-Nov-23 06:00N 31°43' E 121°08'713.1
2017-Nov-23 05:30N 31°46' E 121°01'  

Dump ship's entire track history